Aviation Digital Data Service (ADDS)

Output produced by METARs form (1327 UTC 17 September 2019)
found at http://www.aviationweather.gov/metar/data/
 
VTCC 171300Z 26004KT 9999 FEW035 35/22 Q1010 NOSIG
VTCC 171230Z 26004KT 9999 FEW035 30/23 Q1009 NOSIG
VTCC 171200Z 26005KT 9999 FEW035 30/23 Q1009 NOSIG
VTCC 171130Z 26004KT 9999 FEW035 31/23 Q1008 NOSIG
VTCC 171100Z 26005KT 240V300 9999 FEW035 33/22 Q1008 NOSIG
VTCC 171030Z VRB02KT 9999 FEW035 35/22 Q1008 NOSIG
VTCC 171000Z VRB02KT 9999 FEW035 36/21 Q1008 NOSIG
VTCC 170930Z 16005KT 120V220 9999 FEW035 36/21 Q1008 NOSIG
VTCC 170900Z 18004KT 9999 FEW035 35/21 Q1008 NOSIG
VTCC 170830Z 13005KT 9999 FEW035 35/22 Q1008 NOSIG
VTCC 170800Z 17006KT 090V240 9999 FEW035 35/20 Q1008 NOSIG
VTCC 170730Z 25004KT 9999 FEW035 36/22 Q1009 NOSIG
VTCC 170700Z 12006KT 040V190 9999 FEW035 35/20 Q1009 NOSIG
VTCC 170630Z 08006KT 020V140 9999 FEW035 34/21 Q1010 NOSIG
VTCC 170600Z VRB02KT 9999 FEW035 35/22 Q1010 NOSIG
VTCC 170530Z 08004KT 9999 FEW035 34/22 Q1011 NOSIG
VTCC 170500Z 07005KT 9999 FEW035 33/22 Q1011 NOSIG
VTCC 170430Z VRB02KT 9999 FEW035 33/22 Q1012 NOSIG
VTCC 170400Z 35004KT 9999 FEW035 32/23 Q1013 NOSIG
VTCC 170330Z 02004KT 9999 FEW035 31/22 Q1013 NOSIG
VTCC 170300Z 36005KT 300V050 9999 FEW035 30/22 Q1013 NOSIG
VTCC 170230Z VRB01KT 9999 FEW035 30/23 Q1013 NOSIG
VTCC 170200Z 00000KT 9999 FEW035 29/22 Q1013 NOSIG
VTCC 170130Z VRB01KT CAVOK 28/22 Q1013 NOSIG
VTCC 170100Z 00000KT 9999 FEW035 28/22 Q1013 NOSIG
VTCC 170030Z 00000KT CAVOK 26/22 Q1012 NOSIG
VTCC 170000Z VRB01KT CAVOK 24/21 Q1012 NOSIG
VTCC 162330Z VRB01KT CAVOK 22/21 Q1012 NOSIG
VTCC 162300Z 00000KT CAVOK 22/21 Q1011 NOSIG
VTCC 162230Z 00000KT CAVOK 23/21 Q1011 NOSIG
VTCC 162200Z VRB01KT CAVOK 23/22 Q1011 NOSIG
VTCC 162130Z 00000KT CAVOK 23/21 Q1011 NOSIG
VTCC 162100Z 00000KT CAVOK 23/22 Q1011 NOSIG
VTCC 162030Z 00000KT CAVOK 24/22 Q1011 NOSIG
VTCC 162000Z VRB02KT CAVOK 24/22 Q1011 NOSIG
VTCC 161930Z 00000KT CAVOK 24/21 Q1011 NOSIG
VTCC 161900Z 00000KT CAVOK 24/22 Q1011 NOSIG
VTCC 161830Z 00000KT CAVOK 24/22 Q1011 NOSIG
VTCC 161800Z 00000KT 9999 FEW035 24/22 Q1011 NOSIG
VTCC 161730Z 00000KT 9999 FEW035 25/22 Q1011 NOSIG
VTCC 161700Z 00000KT 9999 FEW035 25/22 Q1011 NOSIG
VTCC 161630Z 00000KT 9999 FEW035 25/21 Q1011 NOSIG
VTCC 161600Z 00000KT 9999 FEW035 25/21 Q1010 NOSIG
VTCC 161530Z VRB02KT 9999 FEW035 26/21 Q1010 NOSIG
VTCC 161500Z 30003KT 9999 FEW035 26/21 Q1010 NOSIG
VTCC 161430Z 25003KT 9999 FEW035 27/21 Q1010 NOSIG
VTCC 161400Z 00000KT 9999 FEW035 27/21 Q1009 NOSIG
VTCC 161330Z VRB02KT 9999 FEW035 27/22 Q1009 NOSIG
TAF VTCC 171100Z 1712/1818 18005KT 9999 FEW035 
     TEMPO 1806/1812 VRB15G25KT 5000 TSRA FEW020CB BKN035